sensor_id;sensor_type;location;lat;lon;timestamp;P1;durP1;ratioP1;P2;durP2;ratioP2
21820;SDS011;11073;48.586;12.066;2023-05-21T00:00:11;8.15;;;6.70;;
21820;SDS011;11073;48.586;12.066;2023-05-21T00:02:41;7.15;;;6.22;;
21820;SDS011;11073;48.586;12.066;2023-05-21T00:05:10;7.75;;;6.93;;
21820;SDS011;11073;48.586;12.066;2023-05-21T00:07:42;7.03;;;6.15;;
21820;SDS011;11073;48.586;12.066;2023-05-21T00:10:12;7.68;;;6.07;;
21820;SDS011;11073;48.586;12.066;2023-05-21T00:12:42;7.82;;;6.18;;
21820;SDS011;11073;48.586;12.066;2023-05-21T00:15:11;11.55;;;6.57;;
21820;SDS011;11073;48.586;12.066;2023-05-21T00:17:41;7.97;;;6.72;;
21820;SDS011;11073;48.586;12.066;2023-05-21T00:20:11;6.63;;;6.00;;
21820;SDS011;11073;48.586;12.066;2023-05-21T00:22:40;7.60;;;6.10;;
21820;SDS011;11073;48.586;12.066;2023-05-21T00:25:09;7.25;;;6.25;;
21820;SDS011;11073;48.586;12.066;2023-05-21T00:27:39;7.07;;;6.40;;
21820;SDS011;11073;48.586;12.066;2023-05-21T00:30:09;7.32;;;6.43;;
21820;SDS011;11073;48.586;12.066;2023-05-21T00:32:39;7.20;;;6.50;;
21820;SDS011;11073;48.586;12.066;2023-05-21T00:35:08;8.73;;;6.45;;
21820;SDS011;11073;48.586;12.066;2023-05-21T00:37:38;7.10;;;6.32;;
21820;SDS011;11073;48.586;12.066;2023-05-21T00:40:07;8.23;;;6.78;;
21820;SDS011;11073;48.586;12.066;2023-05-21T00:42:38;7.72;;;6.03;;
21820;SDS011;11073;48.586;12.066;2023-05-21T00:45:07;7.43;;;6.70;;
21820;SDS011;11073;48.586;12.066;2023-05-21T00:47:38;7.25;;;6.05;;
21820;SDS011;11073;48.586;12.066;2023-05-21T00:50:09;8.50;;;6.50;;
21820;SDS011;11073;48.586;12.066;2023-05-21T00:52:39;7.63;;;6.35;;
21820;SDS011;11073;48.586;12.066;2023-05-21T00:55:08;7.65;;;6.32;;
21820;SDS011;11073;48.586;12.066;2023-05-21T00:57:38;7.25;;;6.30;;
21820;SDS011;11073;48.586;12.066;2023-05-21T01:00:08;8.32;;;6.55;;
21820;SDS011;11073;48.586;12.066;2023-05-21T01:02:39;6.53;;;5.85;;
21820;SDS011;11073;48.586;12.066;2023-05-21T01:05:08;8.02;;;6.63;;
21820;SDS011;11073;48.586;12.066;2023-05-21T01:07:38;6.40;;;5.80;;
21820;SDS011;11073;48.586;12.066;2023-05-21T01:10:11;7.22;;;5.15;;
21820;SDS011;11073;48.586;12.066;2023-05-21T01:12:40;7.03;;;5.97;;
21820;SDS011;11073;48.586;12.066;2023-05-21T01:15:11;9.25;;;6.28;;
21820;SDS011;11073;48.586;12.066;2023-05-21T01:17:41;7.38;;;5.97;;
21820;SDS011;11073;48.586;12.066;2023-05-21T01:20:12;7.80;;;6.20;;
21820;SDS011;11073;48.586;12.066;2023-05-21T01:22:52;6.63;;;5.93;;
21820;SDS011;11073;48.586;12.066;2023-05-21T01:25:23;6.97;;;6.28;;
21820;SDS011;11073;48.586;12.066;2023-05-21T01:27:53;6.95;;;6.25;;
21820;SDS011;11073;48.586;12.066;2023-05-21T01:30:23;7.18;;;5.88;;
21820;SDS011;11073;48.586;12.066;2023-05-21T01:32:53;7.38;;;5.85;;
21820;SDS011;11073;48.586;12.066;2023-05-21T01:35:26;6.05;;;5.43;;
21820;SDS011;11073;48.586;12.066;2023-05-21T01:38:04;8.68;;;5.90;;
21820;SDS011;11073;48.586;12.066;2023-05-21T01:40:43;6.65;;;6.00;;
21820;SDS011;11073;48.586;12.066;2023-05-21T01:43:14;8.82;;;6.15;;
21820;SDS011;11073;48.586;12.066;2023-05-21T01:45:44;7.18;;;5.88;;
21820;SDS011;11073;48.586;12.066;2023-05-21T01:48:15;7.13;;;6.25;;
21820;SDS011;11073;48.586;12.066;2023-05-21T01:50:46;6.97;;;6.28;;
21820;SDS011;11073;48.586;12.066;2023-05-21T01:53:17;9.27;;;6.22;;
21820;SDS011;11073;48.586;12.066;2023-05-21T01:55:46;7.57;;;5.90;;
21820;SDS011;11073;48.586;12.066;2023-05-21T01:58:15;8.98;;;5.78;;
21820;SDS011;11073;48.586;12.066;2023-05-21T02:00:44;7.35;;;6.50;;
21820;SDS011;11073;48.586;12.066;2023-05-21T02:03:13;8.30;;;6.68;;
21820;SDS011;11073;48.586;12.066;2023-05-21T02:05:43;6.93;;;6.15;;
21820;SDS011;11073;48.586;12.066;2023-05-21T02:08:13;9.48;;;6.30;;
21820;SDS011;11073;48.586;12.066;2023-05-21T02:10:44;7.65;;;5.93;;
21820;SDS011;11073;48.586;12.066;2023-05-21T02:13:13;9.70;;;6.00;;
21820;SDS011;11073;48.586;12.066;2023-05-21T02:15:42;6.90;;;6.10;;
21820;SDS011;11073;48.586;12.066;2023-05-21T02:18:11;7.75;;;6.55;;
21820;SDS011;11073;48.586;12.066;2023-05-21T02:20:43;6.93;;;5.95;;
21820;SDS011;11073;48.586;12.066;2023-05-21T02:23:12;7.13;;;5.72;;
21820;SDS011;11073;48.586;12.066;2023-05-21T02:25:41;7.95;;;6.43;;
21820;SDS011;11073;48.586;12.066;2023-05-21T02:28:11;7.30;;;6.30;;
21820;SDS011;11073;48.586;12.066;2023-05-21T02:30:40;7.22;;;6.13;;
21820;SDS011;11073;48.586;12.066;2023-05-21T02:33:08;7.20;;;6.10;;
21820;SDS011;11073;48.586;12.066;2023-05-21T02:35:40;6.45;;;5.85;;
21820;SDS011;11073;48.586;12.066;2023-05-21T02:38:10;8.30;;;5.93;;
21820;SDS011;11073;48.586;12.066;2023-05-21T02:40:40;7.30;;;6.55;;
21820;SDS011;11073;48.586;12.066;2023-05-21T02:43:09;6.75;;;6.13;;
21820;SDS011;11073;48.586;12.066;2023-05-21T02:45:42;7.10;;;5.93;;
21820;SDS011;11073;48.586;12.066;2023-05-21T02:48:11;8.07;;;6.10;;
21820;SDS011;11073;48.586;12.066;2023-05-21T02:50:47;6.75;;;5.60;;
21820;SDS011;11073;48.586;12.066;2023-05-21T02:53:16;6.82;;;6.13;;
21820;SDS011;11073;48.586;12.066;2023-05-21T02:55:45;7.07;;;6.07;;
21820;SDS011;11073;48.586;12.066;2023-05-21T02:58:14;6.82;;;6.13;;
21820;SDS011;11073;48.586;12.066;2023-05-21T03:00:44;7.15;;;6.22;;
21820;SDS011;11073;48.586;12.066;2023-05-21T03:03:13;7.35;;;6.50;;
21820;SDS011;11073;48.586;12.066;2023-05-21T03:05:42;6.97;;;6.25;;
21820;SDS011;11073;48.586;12.066;2023-05-21T03:08:12;8.52;;;7.03;;
21820;SDS011;11073;48.586;12.066;2023-05-21T03:10:41;6.90;;;6.20;;
21820;SDS011;11073;48.586;12.066;2023-05-21T03:13:10;7.30;;;6.10;;
21820;SDS011;11073;48.586;12.066;2023-05-21T03:15:39;10.25;;;6.72;;
21820;SDS011;11073;48.586;12.066;2023-05-21T03:18:11;8.55;;;6.40;;
21820;SDS011;11073;48.586;12.066;2023-05-21T03:20:40;7.65;;;6.80;;
21820;SDS011;11073;48.586;12.066;2023-05-21T03:23:11;7.65;;;5.93;;
21820;SDS011;11073;48.586;12.066;2023-05-21T03:25:43;7.93;;;7.20;;
21820;SDS011;11073;48.586;12.066;2023-05-21T03:28:13;10.32;;;7.38;;
21820;SDS011;11073;48.586;12.066;2023-05-21T03:30:48;7.60;;;6.80;;
21820;SDS011;11073;48.586;12.066;2023-05-21T03:33:41;8.57;;;6.40;;
21820;SDS011;11073;48.586;12.066;2023-05-21T03:36:19;7.30;;;6.60;;
21820;SDS011;11073;48.586;12.066;2023-05-21T03:38:48;8.75;;;7.68;;
21820;SDS011;11073;48.586;12.066;2023-05-21T03:41:17;7.70;;;7.00;;
21820;SDS011;11073;48.586;12.066;2023-05-21T03:43:51;7.70;;;6.97;;
21820;SDS011;11073;48.586;12.066;2023-05-21T03:46:22;9.00;;;7.35;;
21820;SDS011;11073;48.586;12.066;2023-05-21T03:49:20;8.95;;;7.65;;
21820;SDS011;11073;48.586;12.066;2023-05-21T03:51:52;9.18;;;8.27;;
21820;SDS011;11073;48.586;12.066;2023-05-21T03:54:22;10.27;;;7.55;;
21820;SDS011;11073;48.586;12.066;2023-05-21T03:56:55;8.10;;;7.30;;
21820;SDS011;11073;48.586;12.066;2023-05-21T03:59:24;9.88;;;7.95;;
21820;SDS011;11073;48.586;12.066;2023-05-21T04:01:54;10.13;;;7.80;;
21820;SDS011;11073;48.586;12.066;2023-05-21T04:04:24;11.45;;;8.00;;
21820;SDS011;11073;48.586;12.066;2023-05-21T04:06:55;10.75;;;9.60;;
21820;SDS011;11073;48.586;12.066;2023-05-21T04:09:25;10.52;;;9.43;;
21820;SDS011;11073;48.586;12.066;2023-05-21T04:11:53;11.38;;;9.50;;
21820;SDS011;11073;48.586;12.066;2023-05-21T04:14:22;11.90;;;10.40;;
21820;SDS011;11073;48.586;12.066;2023-05-21T04:16:51;12.23;;;10.43;;
21820;SDS011;11073;48.586;12.066;2023-05-21T04:19:20;14.90;;;10.40;;
21820;SDS011;11073;48.586;12.066;2023-05-21T04:21:50;11.35;;;9.88;;
21820;SDS011;11073;48.586;12.066;2023-05-21T04:24:20;10.80;;;9.70;;
21820;SDS011;11073;48.586;12.066;2023-05-21T04:27:04;12.75;;;10.25;;
21820;SDS011;11073;48.586;12.066;2023-05-21T04:29:33;14.32;;;11.57;;
21820;SDS011;11073;48.586;12.066;2023-05-21T04:32:04;11.77;;;10.57;;
21820;SDS011;11073;48.586;12.066;2023-05-21T04:34:33;11.73;;;10.38;;
21820;SDS011;11073;48.586;12.066;2023-05-21T04:37:04;13.00;;;11.70;;
21820;SDS011;11073;48.586;12.066;2023-05-21T04:39:35;15.05;;;12.13;;
21820;SDS011;11073;48.586;12.066;2023-05-21T04:42:05;15.88;;;11.00;;
21820;SDS011;11073;48.586;12.066;2023-05-21T04:44:37;15.65;;;12.70;;
21820;SDS011;11073;48.586;12.066;2023-05-21T04:47:08;17.15;;;12.27;;
21820;SDS011;11073;48.586;12.066;2023-05-21T04:49:38;15.55;;;11.95;;
21820;SDS011;11073;48.586;12.066;2023-05-21T04:52:08;14.40;;;12.90;;
21820;SDS011;11073;48.586;12.066;2023-05-21T04:54:38;14.05;;;12.18;;
21820;SDS011;11073;48.586;12.066;2023-05-21T04:57:08;14.35;;;12.85;;
21820;SDS011;11073;48.586;12.066;2023-05-21T04:59:37;14.18;;;12.32;;
21820;SDS011;11073;48.586;12.066;2023-05-21T05:02:06;14.55;;;12.57;;
21820;SDS011;11073;48.586;12.066;2023-05-21T05:04:35;14.27;;;12.27;;
21820;SDS011;11073;48.586;12.066;2023-05-21T05:07:04;14.32;;;12.45;;
21820;SDS011;11073;48.586;12.066;2023-05-21T05:09:35;13.75;;;12.00;;
21820;SDS011;11073;48.586;12.066;2023-05-21T05:12:04;14.07;;;12.57;;
21820;SDS011;11073;48.586;12.066;2023-05-21T05:14:33;14.10;;;12.00;;
21820;SDS011;11073;48.586;12.066;2023-05-21T05:17:03;14.38;;;12.88;;
21820;SDS011;11073;48.586;12.066;2023-05-21T05:19:34;14.02;;;12.63;;
21820;SDS011;11073;48.586;12.066;2023-05-21T05:22:03;14.20;;;12.60;;
21820;SDS011;11073;48.586;12.066;2023-05-21T05:24:32;13.75;;;12.27;;
21820;SDS011;11073;48.586;12.066;2023-05-21T05:27:03;15.75;;;12.77;;
21820;SDS011;11073;48.586;12.066;2023-05-21T05:29:32;12.52;;;11.25;;
21820;SDS011;11073;48.586;12.066;2023-05-21T05:32:01;15.80;;;13.00;;
21820;SDS011;11073;48.586;12.066;2023-05-21T05:34:30;16.05;;;13.60;;
21820;SDS011;11073;48.586;12.066;2023-05-21T05:37:00;16.25;;;12.63;;
21820;SDS011;11073;48.586;12.066;2023-05-21T05:39:33;13.57;;;12.18;;
21820;SDS011;11073;48.586;12.066;2023-05-21T05:42:03;13.73;;;12.32;;
21820;SDS011;11073;48.586;12.066;2023-05-21T05:44:32;14.40;;;12.90;;
21820;SDS011;11073;48.586;12.066;2023-05-21T05:47:01;14.77;;;13.15;;
21820;SDS011;11073;48.586;12.066;2023-05-21T05:49:30;13.73;;;12.25;;
21820;SDS011;11073;48.586;12.066;2023-05-21T05:51:59;14.73;;;12.85;;
21820;SDS011;11073;48.586;12.066;2023-05-21T05:54:28;14.63;;;12.25;;
21820;SDS011;11073;48.586;12.066;2023-05-21T05:56:57;14.27;;;12.27;;
21820;SDS011;11073;48.586;12.066;2023-05-21T05:59:28;13.25;;;11.70;;
21820;SDS011;11073;48.586;12.066;2023-05-21T06:01:59;14.05;;;12.68;;
21820;SDS011;11073;48.586;12.066;2023-05-21T06:04:28;14.20;;;12.43;;
21820;SDS011;11073;48.586;12.066;2023-05-21T06:06:57;15.00;;;12.23;;
21820;SDS011;11073;48.586;12.066;2023-05-21T06:09:27;13.80;;;12.13;;
21820;SDS011;11073;48.586;12.066;2023-05-21T06:11:57;15.55;;;13.95;;
21820;SDS011;11073;48.586;12.066;2023-05-21T06:14:26;14.25;;;11.80;;
21820;SDS011;11073;48.586;12.066;2023-05-21T06:16:56;14.25;;;12.73;;
21820;SDS011;11073;48.586;12.066;2023-05-21T06:19:26;14.15;;;12.23;;
21820;SDS011;11073;48.586;12.066;2023-05-21T06:21:55;14.57;;;13.07;;
21820;SDS011;11073;48.586;12.066;2023-05-21T06:24:24;14.55;;;12.43;;
21820;SDS011;11073;48.586;12.066;2023-05-21T06:26:53;15.65;;;13.25;;
21820;SDS011;11073;48.586;12.066;2023-05-21T06:29:22;15.43;;;12.70;;
21820;SDS011;11073;48.586;12.066;2023-05-21T06:31:51;14.85;;;12.45;;
21820;SDS011;11073;48.586;12.066;2023-05-21T06:34:21;16.92;;;12.93;;
21820;SDS011;11073;48.586;12.066;2023-05-21T06:36:50;14.52;;;12.57;;
21820;SDS011;11073;48.586;12.066;2023-05-21T06:39:20;15.95;;;11.90;;
21820;SDS011;11073;48.586;12.066;2023-05-21T06:41:49;14.75;;;11.65;;
21820;SDS011;11073;48.586;12.066;2023-05-21T06:44:44;15.65;;;11.60;;
21820;SDS011;11073;48.586;12.066;2023-05-21T06:47:36;12.88;;;11.57;;
21820;SDS011;11073;48.586;12.066;2023-05-21T06:50:06;13.32;;;11.98;;
21820;SDS011;11073;48.586;12.066;2023-05-21T06:52:36;15.02;;;11.98;;
21820;SDS011;11073;48.586;12.066;2023-05-21T06:55:06;13.02;;;11.73;;
21820;SDS011;11073;48.586;12.066;2023-05-21T06:57:56;14.77;;;11.65;;
21820;SDS011;11073;48.586;12.066;2023-05-21T07:00:25;12.98;;;11.20;;
21820;SDS011;11073;48.586;12.066;2023-05-21T07:02:54;11.80;;;10.25;;
21820;SDS011;11073;48.586;12.066;2023-05-21T07:05:26;11.75;;;10.55;;
21820;SDS011;11073;48.586;12.066;2023-05-21T07:07:54;13.30;;;10.52;;
21820;SDS011;11073;48.586;12.066;2023-05-21T07:10:24;12.48;;;10.82;;
21820;SDS011;11073;48.586;12.066;2023-05-21T07:12:53;11.63;;;10.48;;
21820;SDS011;11073;48.586;12.066;2023-05-21T07:15:22;12.50;;;11.13;;
21820;SDS011;11073;48.586;12.066;2023-05-21T07:17:51;14.57;;;10.65;;
21820;SDS011;11073;48.586;12.066;2023-05-21T07:20:20;11.90;;;10.02;;
21820;SDS011;11073;48.586;12.066;2023-05-21T07:22:53;11.43;;;10.25;;
21820;SDS011;11073;48.586;12.066;2023-05-21T07:25:23;11.88;;;10.10;;
21820;SDS011;11073;48.586;12.066;2023-05-21T07:27:52;11.57;;;10.02;;
21820;SDS011;11073;48.586;12.066;2023-05-21T07:30:21;11.70;;;10.50;;
21820;SDS011;11073;48.586;12.066;2023-05-21T07:32:51;11.90;;;9.98;;
21820;SDS011;11073;48.586;12.066;2023-05-21T07:35:20;11.60;;;10.00;;
21820;SDS011;11073;48.586;12.066;2023-05-21T07:37:49;13.00;;;10.38;;
21820;SDS011;11073;48.586;12.066;2023-05-21T07:40:19;10.48;;;9.25;;
21820;SDS011;11073;48.586;12.066;2023-05-21T07:42:49;12.05;;;10.57;;
21820;SDS011;11073;48.586;12.066;2023-05-21T07:45:21;12.25;;;9.77;;
21820;SDS011;11073;48.586;12.066;2023-05-21T07:47:50;11.13;;;9.88;;
21820;SDS011;11073;48.586;12.066;2023-05-21T07:50:19;15.00;;;10.23;;
21820;SDS011;11073;48.586;12.066;2023-05-21T07:52:48;10.82;;;9.77;;
21820;SDS011;11073;48.586;12.066;2023-05-21T07:55:19;10.95;;;9.45;;
21820;SDS011;11073;48.586;12.066;2023-05-21T07:57:48;11.20;;;9.82;;
21820;SDS011;11073;48.586;12.066;2023-05-21T08:00:24;11.82;;;9.55;;
21820;SDS011;11073;48.586;12.066;2023-05-21T08:02:56;12.43;;;9.85;;
21820;SDS011;11073;48.586;12.066;2023-05-21T08:05:25;10.45;;;9.10;;
21820;SDS011;11073;48.586;12.066;2023-05-21T08:07:54;9.88;;;8.70;;
21820;SDS011;11073;48.586;12.066;2023-05-21T08:10:24;10.13;;;9.13;;
21820;SDS011;11073;48.586;12.066;2023-05-21T08:12:53;10.23;;;9.25;;
21820;SDS011;11073;48.586;12.066;2023-05-21T08:15:22;10.63;;;9.18;;
21820;SDS011;11073;48.586;12.066;2023-05-21T08:17:53;10.10;;;9.02;;
21820;SDS011;11073;48.586;12.066;2023-05-21T08:20:22;9.60;;;8.65;;
21820;SDS011;11073;48.586;12.066;2023-05-21T08:22:51;11.90;;;8.70;;
21820;SDS011;11073;48.586;12.066;2023-05-21T08:25:22;10.68;;;8.85;;
21820;SDS011;11073;48.586;12.066;2023-05-21T08:27:52;9.90;;;8.30;;
21820;SDS011;11073;48.586;12.066;2023-05-21T08:30:21;9.75;;;8.60;;
21820;SDS011;11073;48.586;12.066;2023-05-21T08:32:50;10.80;;;8.23;;
21820;SDS011;11073;48.586;12.066;2023-05-21T08:35:25;9.48;;;8.15;;
21820;SDS011;11073;48.586;12.066;2023-05-21T08:38:04;10.68;;;9.02;;
21820;SDS011;11073;48.586;12.066;2023-05-21T08:40:44;10.45;;;8.75;;
21820;SDS011;11073;48.586;12.066;2023-05-21T08:43:16;9.95;;;8.57;;
21820;SDS011;11073;48.586;12.066;2023-05-21T08:45:49;9.18;;;8.27;;
21820;SDS011;11073;48.586;12.066;2023-05-21T08:48:24;11.02;;;8.30;;
21820;SDS011;11073;48.586;12.066;2023-05-21T08:50:54;10.05;;;8.65;;
21820;SDS011;11073;48.586;12.066;2023-05-21T08:53:28;9.30;;;8.27;;
21820;SDS011;11073;48.586;12.066;2023-05-21T08:55:58;10.75;;;8.43;;
21820;SDS011;11073;48.586;12.066;2023-05-21T08:58:40;11.38;;;8.45;;
21820;SDS011;11073;48.586;12.066;2023-05-21T09:01:13;10.35;;;8.10;;
21820;SDS011;11073;48.586;12.066;2023-05-21T09:03:47;14.20;;;8.18;;
21820;SDS011;11073;48.586;12.066;2023-05-21T09:06:25;9.63;;;7.65;;
21820;SDS011;11073;48.586;12.066;2023-05-21T09:08:56;21.17;;;7.70;;
21820;SDS011;11073;48.586;12.066;2023-05-21T09:11:39;8.50;;;7.47;;
21820;SDS011;11073;48.586;12.066;2023-05-21T09:14:11;10.00;;;7.78;;
21820;SDS011;11073;48.586;12.066;2023-05-21T09:17:17;11.05;;;7.65;;
21820;SDS011;11073;48.586;12.066;2023-05-21T09:20:06;9.05;;;8.15;;
21820;SDS011;11073;48.586;12.066;2023-05-21T09:22:45;8.60;;;7.65;;
21820;SDS011;11073;48.586;12.066;2023-05-21T09:25:16;7.97;;;7.18;;
21820;SDS011;11073;48.586;12.066;2023-05-21T09:27:49;10.35;;;7.28;;
21820;SDS011;11073;48.586;12.066;2023-05-21T09:30:19;8.70;;;6.93;;
21820;SDS011;11073;48.586;12.066;2023-05-21T09:32:55;8.25;;;7.32;;
21820;SDS011;11073;48.586;12.066;2023-05-21T09:35:25;7.88;;;7.03;;
21820;SDS011;11073;48.586;12.066;2023-05-21T09:37:54;8.77;;;7.05;;
21820;SDS011;11073;48.586;12.066;2023-05-21T09:40:24;9.70;;;7.07;;
21820;SDS011;11073;48.586;12.066;2023-05-21T09:42:52;8.82;;;7.32;;
21820;SDS011;11073;48.586;12.066;2023-05-21T09:45:25;8.38;;;7.40;;
21820;SDS011;11073;48.586;12.066;2023-05-21T09:47:57;11.68;;;7.80;;
21820;SDS011;11073;48.586;12.066;2023-05-21T09:50:26;10.07;;;7.00;;
21820;SDS011;11073;48.586;12.066;2023-05-21T09:52:55;9.88;;;7.95;;
21820;SDS011;11073;48.586;12.066;2023-05-21T09:55:25;7.20;;;6.60;;
21820;SDS011;11073;48.586;12.066;2023-05-21T09:57:54;10.18;;;7.60;;
21820;SDS011;11073;48.586;12.066;2023-05-21T10:00:27;9.48;;;6.68;;
21820;SDS011;11073;48.586;12.066;2023-05-21T10:02:57;8.68;;;6.53;;
21820;SDS011;11073;48.586;12.066;2023-05-21T10:05:29;12.68;;;7.35;;
21820;SDS011;11073;48.586;12.066;2023-05-21T10:07:58;7.47;;;6.78;;
21820;SDS011;11073;48.586;12.066;2023-05-21T10:10:28;8.70;;;6.75;;
21820;SDS011;11073;48.586;12.066;2023-05-21T10:12:59;9.98;;;7.47;;
21820;SDS011;11073;48.586;12.066;2023-05-21T10:15:36;11.70;;;7.18;;
21820;SDS011;11073;48.586;12.066;2023-05-21T10:18:06;9.82;;;7.22;;
21820;SDS011;11073;48.586;12.066;2023-05-21T10:20:38;8.13;;;6.75;;
21820;SDS011;11073;48.586;12.066;2023-05-21T10:23:09;8.18;;;7.05;;
21820;SDS011;11073;48.586;12.066;2023-05-21T10:25:40;8.43;;;7.57;;
21820;SDS011;11073;48.586;12.066;2023-05-21T10:28:10;9.88;;;7.05;;
21820;SDS011;11073;48.586;12.066;2023-05-21T10:30:42;8.98;;;7.38;;
21820;SDS011;11073;48.586;12.066;2023-05-21T10:33:12;9.95;;;8.15;;
21820;SDS011;11073;48.586;12.066;2023-05-21T10:35:44;8.45;;;7.30;;
21820;SDS011;11073;48.586;12.066;2023-05-21T10:38:14;8.68;;;7.82;;
21820;SDS011;11073;48.586;12.066;2023-05-21T10:40:47;8.13;;;7.32;;
21820;SDS011;11073;48.586;12.066;2023-05-21T10:43:37;8.57;;;7.45;;
21820;SDS011;11073;48.586;12.066;2023-05-21T10:46:27;10.07;;;7.68;;
21820;SDS011;11073;48.586;12.066;2023-05-21T10:49:14;9.52;;;7.82;;
21820;SDS011;11073;48.586;12.066;2023-05-21T10:51:52;10.07;;;7.68;;
21820;SDS011;11073;48.586;12.066;2023-05-21T11:00:32;8.60;;;7.70;;
21820;SDS011;11073;48.586;12.066;2023-05-21T11:03:03;9.65;;;7.88;;
21820;SDS011;11073;48.586;12.066;2023-05-21T11:05:39;8.55;;;7.53;;
21820;SDS011;11073;48.586;12.066;2023-05-21T11:08:20;9.65;;;7.63;;
21820;SDS011;11073;48.586;12.066;2023-05-21T11:10:53;9.48;;;7.93;;
21820;SDS011;11073;48.586;12.066;2023-05-21T11:13:25;9.25;;;7.80;;
21820;SDS011;11073;48.586;12.066;2023-05-21T11:16:04;8.88;;;7.53;;
21820;SDS011;11073;48.586;12.066;2023-05-21T11:18:57;9.10;;;7.82;;
21820;SDS011;11073;48.586;12.066;2023-05-21T11:21:28;8.50;;;7.70;;
21820;SDS011;11073;48.586;12.066;2023-05-21T11:24:01;12.63;;;8.35;;
21820;SDS011;11073;48.586;12.066;2023-05-21T11:29:37;10.10;;;8.07;;
21820;SDS011;11073;48.586;12.066;2023-05-21T11:32:08;9.75;;;7.70;;
21820;SDS011;11073;48.586;12.066;2023-05-21T11:34:40;8.70;;;7.45;;
21820;SDS011;11073;48.586;12.066;2023-05-21T11:40:17;8.05;;;7.28;;
21820;SDS011;11073;48.586;12.066;2023-05-21T11:42:57;9.85;;;7.30;;
21820;SDS011;11073;48.586;12.066;2023-05-21T11:45:32;10.48;;;7.63;;
21820;SDS011;11073;48.586;12.066;2023-05-21T11:48:01;9.10;;;6.63;;
21820;SDS011;11073;48.586;12.066;2023-05-21T11:50:33;11.50;;;6.88;;
21820;SDS011;11073;48.586;12.066;2023-05-21T11:53:04;10.07;;;6.93;;
21820;SDS011;11073;48.586;12.066;2023-05-21T11:55:36;8.48;;;6.70;;
21820;SDS011;11073;48.586;12.066;2023-05-21T11:58:06;8.60;;;6.90;;
21820;SDS011;11073;48.586;12.066;2023-05-21T12:00:37;11.57;;;7.85;;
21820;SDS011;11073;48.586;12.066;2023-05-21T12:03:07;8.82;;;7.80;;
21820;SDS011;11073;48.586;12.066;2023-05-21T12:05:44;8.52;;;7.60;;
21820;SDS011;11073;48.586;12.066;2023-05-21T12:08:19;8.48;;;7.63;;
21820;SDS011;11073;48.586;12.066;2023-05-21T12:10:54;8.23;;;7.43;;
21820;SDS011;11073;48.586;12.066;2023-05-21T12:13:24;8.10;;;6.57;;
21820;SDS011;11073;48.586;12.066;2023-05-21T12:15:53;9.70;;;7.47;;
21820;SDS011;11073;48.586;12.066;2023-05-21T12:18:22;7.95;;;7.15;;
21820;SDS011;11073;48.586;12.066;2023-05-21T12:20:52;7.72;;;6.90;;
21820;SDS011;11073;48.586;12.066;2023-05-21T12:23:22;8.20;;;6.60;;
21820;SDS011;11073;48.586;12.066;2023-05-21T12:25:51;11.13;;;6.85;;
21820;SDS011;11073;48.586;12.066;2023-05-21T12:28:20;8.13;;;6.75;;
21820;SDS011;11073;48.586;12.066;2023-05-21T12:30:52;8.70;;;7.00;;
21820;SDS011;11073;48.586;12.066;2023-05-21T12:33:21;11.00;;;7.10;;
21820;SDS011;11073;48.586;12.066;2023-05-21T12:35:53;8.80;;;7.35;;
21820;SDS011;11073;48.586;12.066;2023-05-21T12:38:23;9.70;;;7.30;;
21820;SDS011;11073;48.586;12.066;2023-05-21T12:40:52;8.45;;;7.18;;
21820;SDS011;11073;48.586;12.066;2023-05-21T12:43:21;8.68;;;6.88;;
21820;SDS011;11073;48.586;12.066;2023-05-21T12:45:50;8.05;;;7.30;;
21820;SDS011;11073;48.586;12.066;2023-05-21T12:48:19;9.05;;;7.07;;
21820;SDS011;11073;48.586;12.066;2023-05-21T12:50:48;7.88;;;7.18;;
21820;SDS011;11073;48.586;12.066;2023-05-21T12:53:21;7.22;;;6.53;;
21820;SDS011;11073;48.586;12.066;2023-05-21T12:55:50;7.70;;;6.70;;
21820;SDS011;11073;48.586;12.066;2023-05-21T12:58:22;7.55;;;6.85;;
21820;SDS011;11073;48.586;12.066;2023-05-21T13:00:53;7.70;;;6.63;;
21820;SDS011;11073;48.586;12.066;2023-05-21T13:03:22;8.63;;;7.00;;
21820;SDS011;11073;48.586;12.066;2023-05-21T13:05:56;8.10;;;6.78;;
21820;SDS011;11073;48.586;12.066;2023-05-21T13:08:27;8.02;;;6.85;;
21820;SDS011;11073;48.586;12.066;2023-05-21T13:10:57;7.90;;;6.78;;
21820;SDS011;11073;48.586;12.066;2023-05-21T13:13:26;10.25;;;7.13;;
21820;SDS011;11073;48.586;12.066;2023-05-21T13:15:55;7.57;;;6.53;;
21820;SDS011;11073;48.586;12.066;2023-05-21T13:18:26;9.93;;;7.20;;
21820;SDS011;11073;48.586;12.066;2023-05-21T13:20:55;8.57;;;6.75;;
21820;SDS011;11073;48.586;12.066;2023-05-21T13:23:24;8.82;;;7.15;;
21820;SDS011;11073;48.586;12.066;2023-05-21T13:25:54;7.75;;;6.95;;
21820;SDS011;11073;48.586;12.066;2023-05-21T13:28:23;7.40;;;6.57;;
21820;SDS011;11073;48.586;12.066;2023-05-21T13:30:51;7.13;;;6.40;;
21820;SDS011;11073;48.586;12.066;2023-05-21T13:33:22;7.32;;;6.63;;
21820;SDS011;11073;48.586;12.066;2023-05-21T13:35:51;7.13;;;6.28;;
21820;SDS011;11073;48.586;12.066;2023-05-21T13:38:19;9.65;;;6.45;;
21820;SDS011;11073;48.586;12.066;2023-05-21T13:40:48;7.25;;;6.53;;
21820;SDS011;11073;48.586;12.066;2023-05-21T13:43:18;7.40;;;6.68;;
21820;SDS011;11073;48.586;12.066;2023-05-21T13:45:47;7.18;;;6.25;;
21820;SDS011;11073;48.586;12.066;2023-05-21T13:48:16;6.70;;;6.10;;
21820;SDS011;11073;48.586;12.066;2023-05-21T13:50:45;7.13;;;6.40;;
21820;SDS011;11073;48.586;12.066;2023-05-21T13:53:15;7.07;;;6.40;;
21820;SDS011;11073;48.586;12.066;2023-05-21T13:55:44;6.88;;;6.07;;
21820;SDS011;11073;48.586;12.066;2023-05-21T13:58:12;7.38;;;6.68;;
21820;SDS011;11073;48.586;12.066;2023-05-21T14:00:43;8.27;;;6.65;;
21820;SDS011;11073;48.586;12.066;2023-05-21T14:03:12;7.50;;;6.80;;
21820;SDS011;11073;48.586;12.066;2023-05-21T14:05:41;7.45;;;6.40;;
21820;SDS011;11073;48.586;12.066;2023-05-21T14:08:10;8.93;;;6.95;;
21820;SDS011;11073;48.586;12.066;2023-05-21T14:10:38;7.70;;;6.90;;
21820;SDS011;11073;48.586;12.066;2023-05-21T14:13:08;7.25;;;6.55;;
21820;SDS011;11073;48.586;12.066;2023-05-21T14:15:48;9.38;;;7.00;;
21820;SDS011;11073;48.586;12.066;2023-05-21T14:18:17;9.95;;;6.45;;
21820;SDS011;11073;48.586;12.066;2023-05-21T14:20:45;9.30;;;6.68;;
21820;SDS011;11073;48.586;12.066;2023-05-21T14:23:14;9.20;;;7.00;;
21820;SDS011;11073;48.586;12.066;2023-05-21T14:25:43;7.80;;;6.47;;
21820;SDS011;11073;48.586;12.066;2023-05-21T14:28:11;10.50;;;6.22;;
21820;SDS011;11073;48.586;12.066;2023-05-21T14:30:40;7.47;;;6.55;;
21820;SDS011;11073;48.586;12.066;2023-05-21T14:33:11;9.02;;;6.57;;
21820;SDS011;11073;48.586;12.066;2023-05-21T14:35:40;7.32;;;6.22;;
21820;SDS011;11073;48.586;12.066;2023-05-21T14:38:10;6.90;;;6.20;;
21820;SDS011;11073;48.586;12.066;2023-05-21T14:40:39;6.78;;;6.07;;
21820;SDS011;11073;48.586;12.066;2023-05-21T14:43:08;7.05;;;6.35;;
21820;SDS011;11073;48.586;12.066;2023-05-21T14:45:37;8.30;;;6.80;;
21820;SDS011;11073;48.586;12.066;2023-05-21T14:48:07;8.35;;;6.47;;
21820;SDS011;11073;48.586;12.066;2023-05-21T14:50:37;7.78;;;6.68;;
21820;SDS011;11073;48.586;12.066;2023-05-21T14:53:08;7.60;;;6.28;;
21820;SDS011;11073;48.586;12.066;2023-05-21T14:55:38;7.00;;;6.40;;
21820;SDS011;11073;48.586;12.066;2023-05-21T14:58:07;8.85;;;6.50;;
21820;SDS011;11073;48.586;12.066;2023-05-21T15:00:36;8.20;;;6.15;;